Main page
METAR-TAF:

METAR-TAF

Airports :

Deelen Air Base

Arnhem, Netherlands

latitude: 52-04N, longitude: 005-53E, elevation: 48 m

Current weather observation

The report was made 16 minutes ago, at 23:55 UTC
Wind 10 kt from the North, varying between Northwest and Northeast
Temperature 4°C
Humidity 100%
Pressure 1008 hPa
Visibility: 6000 m
Scattered clouds at a height of 1500 ft, Cumulonimbus.
Scattered clouds at a height of 2200 ft
Overcast at a height of 3000 ft
light rain

METAR: EHDL 172355Z AUTO 36010KT 320V040 6000 -RA SCT015CB SCT022 OVC030 04/04 Q1008 RERA WHT

Time: 01:11 (00:11 UTC)


TAF: missing

Weather observations and forecasts of more than 4000 airports (METAR and TAF reports).

The available stations are represented by yellow and red dots on the map.

Hover mouse over dot to see the name of the station.

Then click to see weather observations and forecasts.

To change the map : click on the green buttons with a black cross to zoom in, on the green button with a dash to zoom out, or on the green arrows for adjacent maps.


METAR-TAF: